Date,TemperatureHighF,TemperatureAvgF,TemperatureLowF,DewpointHighF,DewpointAvgF,DewpointLowF,HumidityHigh,HumidityAvg,HumidityLow,PressureMaxIn,PressureMinIn,WindSpeedMaxMPH,WindSpeedAvgMPH,GustSpeedMaxMPH,PrecipitationSumIn
2013-7-1,81,71,70,73,69,68,96,93,75,29.91,29.84,1,0,4,0.13
2013-7-2,74,73,72,73,72,70,96,95,92,30.16,30.05,0,0,3,0.31
2013-7-3,75,74,74,74,73,72,96,96,96,30.23,30.21,0,0,0,0.90
2013-7-4,86,78,72,78,73,70,97,86,66,30.26,30.16,2,0,7,0.00
2013-7-5,86,77,71,77,72,68,94,85,72,30.25,30.13,3,0,5,0.00
2013-7-6,88,79,72,78,72,69,95,82,63,30.20,30.09,1,0,4,0.00
2013-7-7,88,78,72,78,72,69,96,84,65,30.13,30.00,3,0,7,0.20
2013-7-8,84,75,70,74,71,68,97,89,66,30.13,30.06,3,0,4,0.14
2013-7-9,84,77,70,77,73,69,97,89,73,30.11,30.01,1,0,3,0.02
2013-7-10,87,76,72,79,73,70,95,90,71,30.03,29.90,1,0,6,0.10
2013-7-11,85,76,72,77,72,70,97,89,67,29.92,29.86,2,0,5,0.17
2013-7-12,74,70,66,72,67,64,95,90,84,30.05,29.88,3,0,7,0.35
2013-7-13,80,70,65,71,66,63,95,88,73,30.17,30.04,2,0,4,0.00
2013-7-14,87,81,74,77,73,71,93,77,64,30.33,30.26,2,0,4,0.04
2013-7-15,92,80,71,77,72,69,96,80,54,30.31,30.21,2,0,4,0.00
2013-7-16,93,83,72,78,74,70,95,77,56,30.24,30.16,4,0,7,0.00
2013-7-17,93,82,74,78,74,70,95,79,53,30.21,30.09,2,0,3,0.00
2013-7-18,92,82,74,80,75,71,96,80,59,30.13,30.01,2,0,2,0.00
2013-7-19,94,83,75,80,76,71,94,79,60,30.04,29.89,0,0,3,0.00
2013-7-20,91,80,74,78,73,69,89,80,63,29.93,29.83,2,0,4,0.00
2013-7-21,90,78,71,77,71,68,95,82,59,29.94,29.87,1,0,7,0.09
2013-7-22,85,77,72,77,72,70,96,86,72,29.94,29.76,2,0,4,0.00
2013-7-23,90,80,73,74,71,69,93,76,54,29.77,29.65,0,0,6,0.00
2013-7-24,86,76,69,73,68,65,91,78,59,29.90,29.68,4,0,6,0.03
2013-7-25,78,70,63,65,60,55,88,71,51,30.04,29.88,3,0,6,0.00
2013-7-26,84,70,58,66,60,54,92,71,46,30.11,30.02,1,0,4,0.00
2013-7-27,82,72,66,72,66,62,90,81,68,30.05,29.92,3,0,6,0.01
2013-7-28,86,74,68,71,68,62,92,83,56,29.98,29.89,2,0,9,0.12
2013-7-29,82,72,64,68,62,56,94,74,46,30.16,29.97,3,0,5,0.01
2013-7-30,81,70,59,65,60,55,91,72,46,30.23,30.14,0,0,2,0.00
2013-7-31,78,71,65,70,65,61,91,83,67,30.15,30.02,0,0,0,0.07